Time;durP1;ratioP1;P1;durP2;ratioP2;P2;SDS_P1;SDS_P2;PMS_P1;PMS_P2;Temp;Humidity;BMP_temperature;BMP_pressure;BME280_temperature;BME280_humidity;BME280_pressure;Samples;Min_cycle;Max_cycle;Signal;HPM_P1;HPM_P2
2022/05/20 00:00:10;;;;;;;16.00;9.75;;;;;;;10.42;100.00;102087.44;1039823;28;20296;-80
2022/05/20 00:00:44;;;;;;;151.68;17.58;;;;;;;10.20;100.00;102092.66;1037986;28;20308;-81
2022/05/20 00:01:15;;;;;;;78.32;13.38;;;;;;;10.26;100.00;102088.44;1040183;28;20302;-80
2022/05/20 00:01:47;;;;;;;35.15;12.60;;;;;;;10.25;100.00;102091.28;1035804;28;20655;-80
2022/05/20 00:02:19;;;;;;;87.50;14.52;;;;;;;10.15;100.00;102084.38;1030197;28;20689;-80
2022/05/20 00:02:50;;;;;;;414.35;37.47;;;;;;;9.95;100.00;102091.22;1032378;28;20309;-80
2022/05/20 00:03:22;;;;;;;269.50;27.92;;;;;;;9.90;100.00;102090.94;1036061;28;20431;-78
2022/05/20 00:03:53;;;;;;;54.65;13.85;;;;;;;9.97;100.00;102083.88;1030466;28;20306;-80
2022/05/20 00:04:25;;;;;;;94.50;14.43;;;;;;;9.99;100.00;102081.03;1036672;28;20350;-80
2022/05/20 00:04:57;;;;;;;80.65;13.10;;;;;;;10.27;100.00;102084.75;1035919;28;20305;-80
2022/05/20 00:05:29;;;;;;;108.07;13.32;;;;;;;10.33;100.00;102085.88;1040367;28;20303;-81
2022/05/20 00:06:01;;;;;;;113.63;16.90;;;;;;;10.27;100.00;102078.63;1038857;28;20770;-80
2022/05/20 00:06:32;;;;;;;108.78;14.48;;;;;;;10.30;100.00;102080.91;1034024;28;20297;-78
2022/05/20 00:07:04;;;;;;;167.38;16.67;;;;;;;10.09;100.00;102087.75;1031539;28;20296;-79
2022/05/20 00:07:36;;;;;;;112.70;14.45;;;;;;;10.17;100.00;102079.69;1034939;28;20309;-78
2022/05/20 00:08:08;;;;;;;116.97;13.02;;;;;;;10.33;100.00;102078.69;1033299;28;20309;-79
2022/05/20 00:08:39;;;;;;;131.60;14.75;;;;;;;10.33;100.00;102084.03;1036558;28;20304;-79
2022/05/20 00:09:11;;;;;;;61.67;11.43;;;;;;;10.25;100.00;102080.63;1043042;28;20291;-79
2022/05/20 00:09:42;;;;;;;128.80;13.50;;;;;;;9.98;100.00;102079.38;1044573;28;20327;-79
2022/05/20 00:10:15;;;;;;;226.93;16.80;;;;;;;9.94;100.00;102081.59;1046719;28;20776;-80
2022/05/20 00:10:50;;;;;;;64.47;10.70;;;;;;;10.08;100.00;102085.25;1043640;28;20684;-79
2022/05/20 00:11:22;;;;;;;21.05;9.15;;;;;;;10.15;100.00;102087.03;1042148;28;20769;-80
2022/05/20 00:11:54;;;;;;;40.65;9.23;;;;;;;10.30;100.00;102079.06;1042126;28;20314;-80
2022/05/20 00:12:26;;;;;;;202.38;17.55;;;;;;;10.25;100.00;102076.13;1040400;28;20304;-81
2022/05/20 00:12:59;;;;;;;166.45;21.08;;;;;;;10.32;100.00;102081.53;1046899;28;20306;-80
2022/05/20 00:13:30;;;;;;;99.00;14.25;;;;;;;10.23;100.00;102082.66;1045204;28;20307;-81
2022/05/20 00:14:06;;;;;;;60.53;14.25;;;;;;;10.25;100.00;102083.31;1043644;28;20311;-80
2022/05/20 00:14:37;;;;;;;47.63;11.52;;;;;;;10.19;100.00;102083.00;1044030;28;20292;-80
2022/05/20 00:15:11;;;;;;;15.57;11.35;;;;;;;10.13;100.00;102089.03;1041020;28;20308;-80
2022/05/20 00:15:43;;;;;;;16.38;9.65;;;;;;;10.10;100.00;102084.06;1035988;28;20342;-80
2022/05/20 00:16:15;;;;;;;27.15;10.38;;;;;;;10.07;100.00;102083.63;1039979;28;20323;-80
2022/05/20 00:16:47;;;;;;;30.52;10.77;;;;;;;9.99;100.00;102081.88;1035508;28;20315;-79
2022/05/20 00:17:18;;;;;;;77.82;12.85;;;;;;;9.87;100.00;102086.81;1029995;28;20296;-80
2022/05/20 00:17:50;;;;;;;52.92;10.10;;;;;;;9.78;100.00;102081.72;1040432;28;20307;-80
2022/05/20 00:18:22;;;;;;;23.10;9.18;;;;;;;9.91;100.00;102084.63;1038976;28;20758;-79
2022/05/20 00:18:53;;;;;;;16.13;10.15;;;;;;;9.97;100.00;102086.56;1037010;28;20404;-80
2022/05/20 00:19:25;;;;;;;180.18;20.27;;;;;;;9.74;100.00;102083.94;1042607;28;20292;-80
2022/05/20 00:19:56;;;;;;;305.90;29.95;;;;;;;9.49;100.00;102085.97;1035384;28;20605;-80
2022/05/20 00:20:29;;;;;;;313.60;28.17;;;;;;;9.44;100.00;102083.03;1041696;28;20304;-80
2022/05/20 00:21:00;;;;;;;171.27;17.95;;;;;;;9.44;100.00;102088.34;1033261;28;20371;-79
2022/05/20 00:21:33;;;;;;;441.80;42.78;;;;;;;9.40;100.00;102076.41;1030466;28;20505;-79
2022/05/20 00:22:05;;;;;;;145.85;17.35;;;;;;;9.46;100.00;102083.66;1030339;28;20316;-79
2022/05/20 00:22:38;;;;;;;121.47;14.38;;;;;;;9.49;100.00;102080.66;1035275;28;20296;-78
2022/05/20 00:23:42;;;;;;;50.55;11.38;;;;;;;9.75;100.00;102082.09;1030474;28;20341;-79
2022/05/20 00:24:13;;;;;;;184.70;17.15;;;;;;;9.65;100.00;102084.19;1031306;28;20320;-79
2022/05/20 00:25:48;;;;;;;198.50;18.05;;;;;;;9.72;100.00;102085.13;1023304;28;20298;-78
2022/05/20 00:26:20;;;;;;;353.23;25.65;;;;;;;9.81;100.00;102081.38;1023771;28;20043;-78
2022/05/20 00:26:51;;;;;;;165.52;15.55;;;;;;;9.80;100.00;102072.56;1021852;28;20307;-78
2022/05/20 00:27:29;;;;;;;305.02;23.98;;;;;;;9.69;100.00;102074.84;1024659;28;20327;-78
2022/05/20 00:28:01;;;;;;;205.30;18.35;;;;;;;9.54;100.00;102078.28;1024751;28;20447;-78
2022/05/20 00:28:33;;;;;;;16.52;8.63;;;;;;;9.65;100.00;102073.56;1025699;28;20350;-78
2022/05/20 00:29:05;;;;;;;10.85;9.75;;;;;;;9.58;100.00;102076.06;1026911;28;20314;-78
2022/05/20 00:29:36;;;;;;;11.23;9.90;;;;;;;9.56;100.00;102070.94;1024284;28;20311;-78
2022/05/20 00:30:09;;;;;;;15.95;9.45;;;;;;;9.62;100.00;102073.91;1033842;28;20389;-78
2022/05/20 00:30:41;;;;;;;35.72;10.90;;;;;;;9.57;100.00;102066.44;1035900;28;20301;-78
2022/05/20 00:31:13;;;;;;;31.00;11.80;;;;;;;9.61;100.00;102073.09;1035452;28;20655;-78
2022/05/20 00:31:44;;;;;;;13.02;11.70;;;;;;;9.62;100.00;102073.91;1035691;28;20304;-78
2022/05/20 00:32:16;;;;;;;13.10;10.75;;;;;;;9.62;100.00;102074.75;1032937;28;20323;-78
2022/05/20 00:32:48;;;;;;;16.92;11.30;;;;;;;9.71;100.00;102071.00;1039236;28;20315;-78
2022/05/20 00:33:20;;;;;;;12.63;10.90;;;;;;;9.81;100.00;102073.38;1031558;28;20305;-78
2022/05/20 00:33:52;;;;;;;14.15;11.30;;;;;;;9.91;100.00;102071.31;1032314;28;20324;-78
2022/05/20 00:34:24;;;;;;;11.90;10.73;;;;;;;10.05;100.00;102065.16;1038444;28;21195;-78
2022/05/20 00:34:55;;;;;;;12.23;11.05;;;;;;;10.11;100.00;102069.75;1031917;28;20822;-78
2022/05/20 00:35:27;;;;;;;12.48;11.48;;;;;;;10.07;100.00;102068.47;1032639;28;20305;-76
2022/05/20 00:35:59;;;;;;;10.48;9.45;;;;;;;9.76;100.00;102067.78;1031581;28;20332;-76
2022/05/20 00:36:30;;;;;;;12.05;11.00;;;;;;;9.74;100.00;102061.81;1031491;28;20301;-76
2022/05/20 00:37:02;;;;;;;15.40;10.95;;;;;;;9.57;100.00;102063.78;1028629;28;20309;-76
2022/05/20 00:37:34;;;;;;;133.57;18.25;;;;;;;9.55;100.00;102063.97;1027935;28;20890;-76
2022/05/20 00:38:06;;;;;;;102.00;14.70;;;;;;;9.69;100.00;102064.19;1027637;28;20299;-76
2022/05/20 00:38:37;;;;;;;53.47;12.55;;;;;;;9.68;100.00;102067.88;1032359;28;20335;-77
2022/05/20 00:39:09;;;;;;;83.57;12.80;;;;;;;9.75;100.00;102074.13;1035747;28;20301;-76
2022/05/20 00:39:40;;;;;;;75.47;12.38;;;;;;;9.75;100.00;102068.78;1036243;28;20343;-76
2022/05/20 00:40:14;;;;;;;68.85;10.98;;;;;;;9.67;100.00;102075.03;1039852;28;20347;-76
2022/05/20 00:40:48;;;;;;;48.88;10.13;;;;;;;9.73;100.00;102071.63;1033734;28;20315;-76
2022/05/20 00:41:20;;;;;;;138.25;16.52;;;;;;;9.63;100.00;102072.91;1028722;28;20404;-76
2022/05/20 00:41:52;;;;;;;196.93;18.13;;;;;;;9.45;100.00;102068.72;1028911;28;20815;-76
2022/05/20 00:42:24;;;;;;;11.40;10.30;;;;;;;9.44;100.00;102072.38;1030351;28;20300;-76
2022/05/20 00:43:07;;;;;;;14.40;13.13;;;;;;;9.59;100.00;102073.28;1035528;28;20297;-76
2022/05/20 00:43:42;;;;;;;67.68;15.90;;;;;;;9.36;100.00;102069.78;1037658;28;20387;-75
2022/05/20 00:44:14;;;;;;;205.55;29.83;;;;;;;9.21;100.00;102077.69;1037740;28;20296;-75
2022/05/20 00:44:46;;;;;;;31.83;15.18;;;;;;;9.23;100.00;102074.88;1031385;28;20294;-76
2022/05/20 00:45:18;;;;;;;370.83;38.45;;;;;;;9.14;100.00;102070.63;1030816;28;20301;-76
2022/05/20 00:45:50;;;;;;;82.30;18.20;;;;;;;9.03;100.00;102063.84;1032654;28;20791;-76
2022/05/20 00:46:23;;;;;;;93.53;16.15;;;;;;;9.07;100.00;102067.84;1034067;28;20305;-76
2022/05/20 00:46:55;;;;;;;13.52;10.45;;;;;;;9.16;100.00;102068.59;1034546;28;20395;-76
2022/05/20 00:47:27;;;;;;;43.20;13.60;;;;;;;9.21;100.00;102066.25;1030967;28;20305;-75
2022/05/20 00:47:59;;;;;;;99.22;15.32;;;;;;;9.15;100.00;102073.09;1034276;28;20447;-76
2022/05/20 00:48:30;;;;;;;114.88;16.95;;;;;;;9.12;100.00;102068.13;1028687;28;20302;-76
2022/05/20 00:49:07;;;;;;;14.45;12.43;;;;;;;9.26;100.00;102061.22;1031720;28;20847;-76
2022/05/20 00:49:41;;;;;;;50.83;12.27;;;;;;;9.28;100.00;102067.19;1032499;28;20298;-76
2022/05/20 00:50:15;;;;;;;19.17;12.32;;;;;;;9.41;100.00;102071.91;1037131;28;20670;-75
2022/05/20 00:50:51;;;;;;;55.20;14.43;;;;;;;9.32;100.00;102062.34;1031770;28;20302;-76
2022/05/20 00:51:30;;;;;;;38.05;13.32;;;;;;;9.12;100.00;102067.31;1035274;28;20307;-76
2022/05/20 00:52:03;;;;;;;97.00;16.17;;;;;;;9.13;100.00;102068.97;1033311;28;20633;-76
2022/05/20 00:52:36;;;;;;;48.03;12.35;;;;;;;9.27;100.00;102065.53;1036495;28;20853;-76
2022/05/20 00:53:08;;;;;;;92.80;14.27;;;;;;;9.31;100.00;102066.81;1033304;28;20304;-76
2022/05/20 00:53:56;;;;;;;103.10;15.65;;;;;;;9.32;100.00;102068.50;1038358;28;20297;-76
2022/05/20 00:54:33;;;;;;;185.85;17.48;;;;;;;9.13;100.00;102071.63;1037947;28;20674;-76
2022/05/20 00:55:10;;;;;;;384.83;37.53;;;;;;;8.94;100.00;102070.22;1037287;28;20362;-76
2022/05/20 00:55:42;;;;;;;516.75;42.30;;;;;;;8.82;100.00;102077.78;1035605;28;20806;-76
2022/05/20 00:56:17;;;;;;;315.42;23.17;;;;;;;8.83;100.00;102074.13;1033412;28;20294;-76
2022/05/20 00:57:28;;;;;;;434.25;33.80;;;;;;;8.62;100.00;102065.91;1036695;28;20796;-76
2022/05/20 00:58:08;;;;;;;14.55;7.97;;;;;;;8.89;100.00;102073.41;1032480;28;20313;-76
2022/05/20 00:58:40;;;;;;;8.70;7.90;;;;;;;9.08;100.00;102080.13;1027530;28;20074;-76
2022/05/20 00:59:16;;;;;;;8.40;7.78;;;;;;;9.23;100.00;102069.53;1023149;28;20707;-76
2022/05/20 01:00:12;;;;;;;17.38;10.02;;;;;;;9.45;100.00;102073.22;1033085;28;20313;-76
2022/05/20 01:00:47;;;;;;;64.60;13.23;;;;;;;9.39;100.00;102072.09;1039403;28;20304;-76
2022/05/20 01:01:19;;;;;;;84.15;13.75;;;;;;;9.26;100.00;102070.00;1034795;28;20316;-76
2022/05/20 01:01:52;;;;;;;411.35;34.05;;;;;;;9.11;100.00;102078.94;1032746;28;20767;-76
2022/05/20 01:02:25;;;;;;;418.45;36.80;;;;;;;9.00;100.00;102064.22;1025772;28;20298;-76
2022/05/20 01:03:00;;;;;;;290.00;26.73;;;;;;;8.92;100.00;102072.25;1023780;28;20338;-76
2022/05/20 01:03:32;;;;;;;469.38;41.55;;;;;;;8.85;100.00;102069.47;1027152;28;20298;-76
2022/05/20 01:04:05;;;;;;;145.68;16.73;;;;;;;8.79;100.00;102070.16;1030845;28;20328;-76
2022/05/20 01:04:38;;;;;;;125.32;18.40;;;;;;;9.06;100.00;102068.03;1031199;28;20345;-76
2022/05/20 01:05:23;;;;;;;35.25;13.75;;;;;;;9.21;100.00;102074.22;1031156;28;20439;-76
2022/05/20 01:05:55;;;;;;;121.18;17.35;;;;;;;9.20;100.00;102065.41;1032777;28;20651;-76
2022/05/20 01:06:27;;;;;;;156.52;24.58;;;;;;;9.16;100.00;102071.25;1038493;28;20308;-76
2022/05/20 01:06:59;;;;;;;458.48;42.45;;;;;;;8.97;100.00;102069.88;1036099;28;20300;-76
2022/05/20 01:07:35;;;;;;;127.70;19.02;;;;;;;9.05;100.00;102074.34;1031996;28;20313;-76
2022/05/20 01:08:08;;;;;;;119.15;18.70;;;;;;;9.07;100.00;102072.31;1032129;28;20866;-75
2022/05/20 01:08:41;;;;;;;34.88;14.80;;;;;;;9.03;100.00;102076.31;1034351;28;20305;-76
2022/05/20 01:09:12;;;;;;;151.68;19.83;;;;;;;8.91;100.00;102070.59;1036358;28;20365;-76
2022/05/20 01:09:44;;;;;;;20.15;13.68;;;;;;;9.08;100.00;102076.66;1035967;28;20506;-76
2022/05/20 01:10:16;;;;;;;13.10;12.00;;;;;;;9.25;100.00;102072.84;1036995;28;20285;-76
2022/05/20 01:10:48;;;;;;;13.07;11.98;;;;;;;9.30;100.00;102078.47;1037977;28;20304;-76
2022/05/20 01:11:19;;;;;;;14.00;12.77;;;;;;;9.11;100.00;102076.28;1031644;28;20293;-76
2022/05/20 01:11:51;;;;;;;14.40;12.07;;;;;;;9.12;100.00;102075.28;1031635;28;20297;-76
2022/05/20 01:12:24;;;;;;;12.55;11.57;;;;;;;9.23;100.00;102074.88;1032588;28;20312;-75
2022/05/20 01:12:57;;;;;;;14.48;13.27;;;;;;;9.23;100.00;102072.19;1033287;28;20305;-76
2022/05/20 01:13:30;;;;;;;11.82;10.57;;;;;;;9.35;100.00;102084.09;1033969;28;20820;-76
2022/05/20 01:14:02;;;;;;;14.38;13.05;;;;;;;9.41;100.00;102083.38;1031467;28;20305;-76
2022/05/20 01:14:33;;;;;;;17.38;15.60;;;;;;;9.50;100.00;102087.63;1027158;28;20676;-76
2022/05/20 01:15:07;;;;;;;18.77;17.00;;;;;;;9.58;100.00;102087.53;1028192;28;20305;-76
2022/05/20 01:15:39;;;;;;;19.08;13.98;;;;;;;9.45;100.00;102087.34;1031563;28;20646;-76
2022/05/20 01:16:11;;;;;;;14.43;13.27;;;;;;;9.36;100.00;102091.06;1031950;28;20456;-75
2022/05/20 01:16:44;;;;;;;17.08;15.38;;;;;;;9.16;100.00;102087.22;1030945;28;20316;-76
2022/05/20 01:17:15;;;;;;;127.72;21.25;;;;;;;9.05;100.00;102082.31;1027812;28;20305;-76
2022/05/20 01:17:49;;;;;;;526.97;57.30;;;;;;;8.93;100.00;102085.34;1031726;28;20309;-75
2022/05/20 01:18:21;;;;;;;398.75;42.85;;;;;;;8.93;100.00;102085.34;1028406;28;20313;-76
2022/05/20 01:18:53;;;;;;;291.90;35.67;;;;;;;8.86;100.00;102089.72;1028084;28;20684;-76
2022/05/20 01:19:36;;;;;;;58.28;17.95;;;;;;;8.93;100.00;102095.97;1027342;28;20348;-75
2022/05/20 01:20:13;;;;;;;215.88;28.95;;;;;;;8.79;100.00;102083.44;1027017;28;20650;-76
2022/05/20 01:20:48;;;;;;;31.95;14.98;;;;;;;8.83;100.00;102090.06;1031129;28;20474;-75
2022/05/20 01:21:20;;;;;;;105.60;18.23;;;;;;;8.80;100.00;102089.59;1028383;28;20294;-76
2022/05/20 01:21:51;;;;;;;22.10;13.55;;;;;;;8.99;100.00;102089.13;1032462;28;20309;-76
2022/05/20 01:22:48;;;;;;;15.43;14.13;;;;;;;9.08;100.00;102089.94;1033020;28;20293;-75
2022/05/20 01:23:25;;;;;;;14.63;13.35;;;;;;;9.15;100.00;102093.53;1046214;28;20414;-78
2022/05/20 01:24:00;;;;;;;14.38;13.07;;;;;;;9.23;100.00;102093.47;1041789;28;20311;-78
2022/05/20 01:24:33;;;;;;;13.50;12.20;;;;;;;9.14;100.00;102084.72;1035580;28;20687;-78
2022/05/20 01:25:07;;;;;;;14.23;12.80;;;;;;;9.11;100.00;102090.41;1037858;28;20307;-78
2022/05/20 01:25:42;;;;;;;13.50;12.30;;;;;;;9.29;100.00;102095.41;1035638;28;20300;-78
2022/05/20 01:26:13;;;;;;;14.45;13.25;;;;;;;9.41;100.00;102091.34;1039119;28;20786;-78
2022/05/20 01:26:45;;;;;;;17.88;15.63;;;;;;;9.51;100.00;102086.63;1036039;28;20293;-77
2022/05/20 01:27:17;;;;;;;19.05;17.35;;;;;;;9.63;100.00;102087.03;1033803;28;20305;-78
2022/05/20 01:27:48;;;;;;;18.90;17.30;;;;;;;9.66;100.00;102088.50;1035788;28;20312;-78
2022/05/20 01:28:21;;;;;;;18.50;16.83;;;;;;;9.59;100.00;102085.75;1036709;28;20351;-78
2022/05/20 01:28:53;;;;;;;20.10;18.10;;;;;;;9.68;100.00;102094.47;1034151;28;20345;-78
2022/05/20 01:29:25;;;;;;;19.25;17.45;;;;;;;9.74;100.00;102093.75;1039703;28;20311;-78
2022/05/20 01:29:56;;;;;;;19.02;16.67;;;;;;;9.67;100.00;102088.31;1046171;28;21007;-78
2022/05/20 01:30:29;;;;;;;19.45;17.80;;;;;;;9.30;100.00;102091.75;1047859;28;20413;-78
2022/05/20 01:31:04;;;;;;;18.20;16.27;;;;;;;9.01;100.00;102089.78;1039547;28;20296;-78
2022/05/20 01:31:36;;;;;;;20.00;17.88;;;;;;;8.94;100.00;102087.00;1041965;28;20684;-78
2022/05/20 01:32:08;;;;;;;23.92;18.27;;;;;;;9.04;100.00;102091.25;1038958;28;20715;-78
2022/05/20 01:32:39;;;;;;;81.13;19.88;;;;;;;9.06;100.00;102089.28;1041953;28;20786;-78
2022/05/20 01:33:19;;;;;;;18.55;16.65;;;;;;;9.06;100.00;102091.94;1031844;28;20305;-76
2022/05/20 01:33:51;;;;;;;17.63;15.85;;;;;;;9.22;100.00;102083.84;1032625;28;20353;-76
2022/05/20 01:34:22;;;;;;;18.02;16.42;;;;;;;9.36;100.00;102091.06;1037041;28;20304;-76
2022/05/20 01:34:54;;;;;;;20.05;17.85;;;;;;;9.27;100.00;102086.78;1041358;28;20333;-76
2022/05/20 01:35:39;;;;;;;19.00;16.75;;;;;;;9.20;100.00;102081.38;1035436;28;20316;-76
2022/05/20 01:36:15;;;;;;;241.43;29.73;;;;;;;8.93;100.00;102080.03;1033080;28;20313;-76
2022/05/20 01:36:47;;;;;;;51.65;17.33;;;;;;;9.04;100.00;102085.94;1034910;28;20834;-76
2022/05/20 01:37:18;;;;;;;21.00;16.52;;;;;;;9.13;100.00;102084.91;1031815;28;20355;-76
2022/05/20 01:37:50;;;;;;;19.05;16.33;;;;;;;9.19;100.00;102079.72;1033076;28;20387;-76
2022/05/20 01:38:22;;;;;;;38.20;13.98;;;;;;;9.27;100.00;102081.47;1035866;28;20293;-76
2022/05/20 01:38:54;;;;;;;101.90;17.40;;;;;;;9.20;100.00;102085.84;1039531;28;20662;-76
2022/05/20 01:39:25;;;;;;;68.65;16.00;;;;;;;9.17;100.00;102088.88;1039754;28;20299;-76
2022/05/20 01:40:00;;;;;;;75.93;17.50;;;;;;;9.21;100.00;102082.19;1040820;28;20307;-76
2022/05/20 01:40:41;;;;;;;38.70;14.48;;;;;;;9.03;100.00;102085.13;1029526;28;20302;-75
2022/05/20 01:41:20;;;;;;;15.27;11.75;;;;;;;8.87;100.00;102075.44;1031714;28;20294;-76
2022/05/20 01:42:03;;;;;;;71.13;14.32;;;;;;;8.91;100.00;102086.53;1037684;28;20324;-76
2022/05/20 01:42:37;;;;;;;13.73;12.45;;;;;;;9.04;100.00;102080.63;1041345;28;20311;-76
2022/05/20 01:43:17;;;;;;;14.65;13.23;;;;;;;9.13;100.00;102084.91;1042944;28;20284;-76
2022/05/20 01:44:26;;;;;;;21.15;15.63;;;;;;;8.82;100.00;102072.47;1041593;28;20380;-76
2022/05/20 01:45:06;;;;;;;13.23;11.82;;;;;;;9.05;100.00;102077.00;1039419;28;20292;-76
2022/05/20 01:45:51;;;;;;;21.77;12.13;;;;;;;9.20;100.00;102077.88;1035107;28;20711;-76
2022/05/20 01:46:32;;;;;;;44.63;17.38;;;;;;;9.09;100.00;102070.31;1033771;28;20735;-76
2022/05/20 01:47:22;;;;;;;38.65;16.48;;;;;;;8.85;100.00;102066.81;1042398;28;20310;-76
2022/05/20 01:48:04;;;;;;;27.23;15.43;;;;;;;8.85;100.00;102066.81;1042708;28;20296;-75
2022/05/20 01:48:41;;;;;;;13.73;12.32;;;;;;;8.93;100.00;102069.41;1038182;28;20299;-76
2022/05/20 01:49:16;;;;;;;11.82;10.73;;;;;;;8.97;100.00;102065.38;1041186;28;20817;-76
2022/05/20 01:49:53;;;;;;;14.90;13.55;;;;;;;8.86;100.00;102064.97;1035366;28;20316;-76
2022/05/20 01:50:31;;;;;;;16.42;14.90;;;;;;;8.70;100.00;102060.56;1034082;28;20296;-75
2022/05/20 01:51:06;;;;;;;59.80;15.57;;;;;;;8.75;100.00;102060.84;1033825;28;20348;-76
2022/05/20 01:51:43;;;;;;;16.80;15.20;;;;;;;8.83;100.00;102062.66;1037528;28;20312;-75
2022/05/20 01:52:20;;;;;;;15.95;14.40;;;;;;;8.67;100.00;102060.91;1035380;28;20297;-76
2022/05/20 01:53:01;;;;;;;26.63;15.15;;;;;;;8.64;100.00;102058.59;1033522;28;20810;-76
2022/05/20 01:53:38;;;;;;;17.20;15.25;;;;;;;8.59;100.00;102055.66;1027153;28;20660;-76
2022/05/20 01:54:19;;;;;;;132.05;19.40;;;;;;;8.62;100.00;102060.59;1026409;28;20043;-76
2022/05/20 01:54:54;;;;;;;;;;;;;;;8.70;100.00;102057.91;1036922;28;20288;-76
2022/05/20 01:55:48;;;;;;;126.20;19.60;;;;;;;8.78;100.00;102065.84;1038596;28;20402;-76
2022/05/20 01:56:29;;;;;;;142.00;16.60;;;;;;;8.76;100.00;102067.81;1038659;28;20375;-76
2022/05/20 01:57:36;;;;;;;165.40;17.65;;;;;;;8.81;100.00;102054.88;1035850;28;20305;-75
2022/05/20 01:58:16;;;;;;;159.90;18.05;;;;;;;8.80;100.00;102058.53;1029102;28;20684;-75
2022/05/20 01:58:57;;;;;;;104.28;16.40;;;;;;;8.87;100.00;102056.81;1030157;28;20669;-76
2022/05/20 01:59:35;;;;;;;121.72;16.63;;;;;;;8.89;100.00;102057.47;1031004;28;20298;-76
2022/05/20 02:00:13;;;;;;;198.80;19.73;;;;;;;8.83;100.00;102052.03;1030655;28;20049;-75
2022/05/20 02:00:46;;;;;;;139.00;16.55;;;;;;;8.88;100.00;102055.00;1030402;28;20355;-75
2022/05/20 02:01:26;;;;;;;94.18;15.85;;;;;;;8.94;100.00;102049.81;1026575;28;20302;-76
2022/05/20 02:02:06;;;;;;;61.60;14.20;;;;;;;9.02;100.00;102048.09;1025654;28;20336;-76
2022/05/20 02:02:55;;;;;;;113.10;16.10;;;;;;;8.82;100.00;102051.22;1037206;28;20804;-75
2022/05/20 02:03:50;;;;;;;64.60;13.10;;;;;;;8.73;100.00;102052.25;1035290;28;20818;-75
2022/05/20 02:04:28;;;;;;;105.05;14.60;;;;;;;8.66;100.00;102051.28;1035080;28;20348;-75
2022/05/20 02:05:07;;;;;;;158.23;16.88;;;;;;;8.68;100.00;102059.91;1036166;28;20439;-75
2022/05/20 02:06:04;;;;;;;29.10;12.10;;;;;;;8.77;100.00;102063.38;1038631;28;20306;-75
2022/05/20 02:06:42;;;;;;;85.55;15.45;;;;;;;8.73;100.00;102057.56;1036063;28;20308;-75
2022/05/20 02:07:18;;;;;;;35.85;11.98;;;;;;;9.02;100.00;102050.75;1031856;28;20289;-76
2022/05/20 02:07:52;;;;;;;162.60;20.15;;;;;;;8.90;100.00;102051.16;1037333;28;20297;-75
2022/05/20 02:08:32;;;;;;;224.20;18.88;;;;;;;8.85;100.00;102056.19;1032271;28;20671;-76
2022/05/20 02:09:09;;;;;;;37.17;12.55;;;;;;;9.17;100.00;102051.66;1035962;28;20316;-75
2022/05/20 02:09:45;;;;;;;46.75;15.75;;;;;;;9.18;100.00;102045.34;1034751;28;20042;-76
2022/05/20 02:10:37;;;;;;;42.15;12.18;;;;;;;9.24;100.00;102045.44;1036226;28;20770;-75
2022/05/20 02:11:27;;;;;;;41.67;11.90;;;;;;;9.21;100.00;102045.78;1031548;28;20348;-75
2022/05/20 02:11:59;;;;;;;26.65;11.88;;;;;;;9.35;100.00;102046.03;1038259;28;20299;-75
2022/05/20 02:12:37;;;;;;;14.98;12.02;;;;;;;9.43;100.00;102054.78;1034762;28;20305;-75
2022/05/20 02:13:11;;;;;;;25.33;14.63;;;;;;;9.46;100.00;102046.44;1034891;28;20326;-75
2022/05/20 02:13:49;;;;;;;45.30;13.85;;;;;;;9.19;100.00;102053.13;1031958;28;20332;-75
2022/05/20 02:14:56;;;;;;;44.60;14.38;;;;;;;9.02;100.00;102050.75;1033913;28;20304;-75
2022/05/20 02:15:33;;;;;;;55.85;14.02;;;;;;;9.03;100.00;102053.22;1036915;28;20300;-75
2022/05/20 02:16:09;;;;;;;45.05;15.38;;;;;;;9.22;100.00;102046.63;1027358;28;20299;-75
2022/05/20 02:16:44;;;;;;;71.95;18.75;;;;;;;9.38;100.00;102046.50;1029469;28;20293;-75
2022/05/20 02:17:20;;;;;;;96.40;18.45;;;;;;;9.41;100.00;102051.47;1034755;28;20651;-75
2022/05/20 02:17:57;;;;;;;103.65;20.05;;;;;;;9.26;100.00;102046.09;1032643;28;20392;-76
2022/05/20 02:18:36;;;;;;;187.73;21.15;;;;;;;8.88;100.00;102050.50;1030411;28;20318;-76
2022/05/20 02:19:23;;;;;;;83.43;19.52;;;;;;;9.21;100.00;102044.97;1029909;28;20297;-76
2022/05/20 02:19:59;;;;;;;73.63;19.83;;;;;;;9.19;100.00;102042.50;1031253;28;20305;-76
2022/05/20 02:20:36;;;;;;;137.73;21.92;;;;;;;9.14;100.00;102039.53;1037346;28;20632;-75
2022/05/20 02:21:14;;;;;;;106.60;20.70;;;;;;;9.34;100.00;102045.22;1035206;28;20300;-76
2022/05/20 02:21:47;;;;;;;96.32;20.52;;;;;;;9.29;100.00;102044.91;1029567;28;20374;-76
2022/05/20 02:22:23;;;;;;;109.57;21.25;;;;;;;9.21;100.00;102044.97;1033254;28;20301;-76
2022/05/20 02:22:58;;;;;;;76.85;22.23;;;;;;;9.04;100.00;102049.59;1033054;28;20324;-76
2022/05/20 02:23:38;;;;;;;91.25;19.80;;;;;;;9.27;100.00;102044.25;1032717;28;20671;-75
2022/05/20 02:24:12;;;;;;;123.68;20.60;;;;;;;9.19;100.00;102041.66;1034284;28;20308;-75
2022/05/20 02:24:46;;;;;;;71.47;17.70;;;;;;;9.28;100.00;102037.94;1037297;28;20702;-75
2022/05/20 02:25:21;;;;;;;73.93;17.27;;;;;;;9.32;100.00;102041.09;1033032;28;20331;-76
2022/05/20 02:25:56;;;;;;;81.20;17.17;;;;;;;9.34;100.00;102033.75;1025838;28;20318;-76
2022/05/20 02:26:32;;;;;;;72.20;18.77;;;;;;;9.28;100.00;102029.94;1028140;28;20377;-76
2022/05/20 02:27:06;;;;;;;86.65;18.35;;;;;;;9.19;100.00;102031.03;1032819;28;20309;-75
2022/05/20 02:27:41;;;;;;;78.50;17.40;;;;;;;9.14;100.00;102028.91;1033112;28;20301;-78
2022/05/20 02:28:20;;;;;;;88.80;18.17;;;;;;;9.06;100.00;102028.16;1035295;28;20331;-77
2022/05/20 02:29:04;;;;;;;63.92;17.13;;;;;;;9.09;100.00;102027.78;1031029;28;20385;-77
2022/05/20 02:30:11;;;;;;;65.07;16.80;;;;;;;9.29;100.00;102029.78;1035339;28;20313;-77
2022/05/20 02:30:44;;;;;;;33.47;16.63;;;;;;;9.31;100.00;102024.28;1032365;28;21430;-77
2022/05/20 02:31:22;;;;;;;55.72;16.20;;;;;;;9.14;100.00;102028.09;1034588;28;20711;-77
2022/05/20 02:32:00;;;;;;;35.15;15.98;;;;;;;9.20;100.00;102028.19;1033395;28;20297;-75
2022/05/20 02:32:35;;;;;;;49.47;14.68;;;;;;;9.22;100.00;102026.19;1037303;28;20309;-77
2022/05/20 02:33:14;;;;;;;37.92;14.90;;;;;;;9.14;100.00;102023.59;1033487;28;20309;-77
2022/05/20 02:33:45;;;;;;;45.85;15.80;;;;;;;9.13;100.00;102031.75;1034899;28;20307;-77
2022/05/20 02:34:17;;;;;;;63.45;15.90;;;;;;;9.14;100.00;102033.41;1037441;28;20312;-77
2022/05/20 02:34:50;;;;;;;93.03;15.73;;;;;;;9.04;100.00;102032.78;1040679;28;20300;-77
2022/05/20 02:35:21;;;;;;;89.47;16.70;;;;;;;8.90;100.00;102037.03;1034753;28;20293;-77
2022/05/20 02:36:07;;;;;;;57.20;14.05;;;;;;;8.87;100.00;102032.91;1035983;28;20300;-77
2022/05/20 02:36:40;;;;;;;60.47;14.80;;;;;;;8.78;100.00;102033.97;1035677;28;20719;-77
2022/05/20 02:37:23;;;;;;;67.53;14.10;;;;;;;8.71;100.00;102034.81;1033364;28;20306;-77
2022/05/20 02:38:03;;;;;;;84.85;16.30;;;;;;;8.65;100.00;102029.22;1039350;28;20351;-77
2022/05/20 02:38:36;;;;;;;97.68;16.48;;;;;;;8.47;100.00;102027.81;1039360;28;20654;-77
2022/05/20 02:39:15;;;;;;;94.50;15.73;;;;;;;8.38;100.00;102020.88;1042027;28;20390;-76
2022/05/20 02:39:46;;;;;;;50.47;14.40;;;;;;;8.65;100.00;102021.25;1038511;28;20787;-77
2022/05/20 02:40:19;;;;;;;85.43;15.00;;;;;;;8.74;100.00;102027.34;1032812;28;20309;-77
2022/05/20 02:40:52;;;;;;;40.65;14.77;;;;;;;8.85;100.00;102024.28;1031469;28;20309;-77
2022/05/20 02:41:25;;;;;;;51.08;13.90;;;;;;;8.87;100.00;102021.47;1037134;28;20307;-77
2022/05/20 02:41:57;;;;;;;77.63;15.40;;;;;;;8.79;100.00;102019.69;1034735;28;20371;-77
2022/05/20 02:42:29;;;;;;;45.83;14.15;;;;;;;8.85;100.00;102021.63;1039656;28;20312;-77